Wheeler Army Airfield, HI

3:51 AM HST on August 03, 2015 (GMT -1000)
Mililani Mauka | | Change Station
CLOSE
Current Station
Personal Weather Station
Location: Mililani, HI
Elevation: 807 ft
Nearby Weather Stations

Elev 807 ft 21.47 °N, 158.01 °W | Updated 9 minutes ago

Partly Cloudy
Partly Cloudy
70.5 °F
Feels Like 70 °F
N
0.0
Wind Variable Wind from North

Today
High -- | Low -- °F
--% Chance of Precip.
Yesterday
High -- | Low -- °F
Precip. -- in
6:06 AM 7:10 PM
Waning Gibbous, 86% visible
Pressure 29.92 in
Visibility 10.0 miles
Clouds Few 2600 ft
Heat Index 70 °F
Dew Point 65 °F
Humidity 83%
Rainfall 0.00 in
Snow Depth Not available.
UV 0 out of 12
Pollen Not available.
Air Quality Not available.
Flu Activity Not available.
METAR PHHI 031258Z VRB03KT 10SM FEW026 22/18 A2992 RMK A02A SLPNO WND DATA ESTMD ALSTG ESTMD $

More Conditions Fewer Conditions

Pressure 29.92 in
Visibility 10.0 miles
Clouds Few 2600 ft
Heat Index 70 °F
Dew Point 65 °F
Humidity 83%
Rainfall 0.00 in
Snow Depth Not available.
UV 0 out of 12
Pollen Not available.
Air Quality Not available.
Flu Activity Not available.
METAR PHHI 031258Z VRB03KT 10SM FEW026 22/18 A2992 RMK A02A SLPNO WND DATA ESTMD ALSTG ESTMD $

More Conditions Fewer Conditions

10-Day Weather Forecast

×

Almanac

Astronomy

Aug. 03, 2015 Rise Set
Actual Time
Civil Twilight
Nautical Twilight
Astronomical Twilight
Moon
Length of Visible Light
Length of Day
Tomorrow will be .
, % of the Moon is Illuminated

Today's Extremes

State Highs State Lows

Community

WunderPhotos

Upload Photos

1,843,634 photos uploaded!

WunderBlogs® & News

Nearby

Air Quality

  Air Quality AQ Index Pollutant
Not available.

Snow Depth

Station Depth Elevation

Earthquake Activity

City Distance Mag. Time & Date
Minimum magnitude displayed is 2.5.

Coastal Water Temperatures

Place Temperature

Stations

Nearby Weather Stations

Station Location Temp. Windchill Dew Point Humidity Wind Precip. Elev Updated Type